Time;durP1;ratioP1;P1;durP2;ratioP2;P2;SDS_P1;SDS_P2;PMS_P1;PMS_P2;Temp;Humidity;BMP_temperature;BMP_pressure;BME280_temperature;BME280_humidity;BME280_pressure;Samples;Min_cycle;Max_cycle;Signal;HPM_P1;HPM_P2
2023/03/02 00:01:42;;;;;;;19.83;12.50;;;2.00;99.90;;;;;;5026737;28;20276;-72
2023/03/02 00:04:23;;;;;;;18.27;13.00;;;1.90;99.90;;;;;;5028333;28;20193;-71
2023/03/02 00:06:52;;;;;;;17.80;12.57;;;1.90;99.90;;;;;;5024075;28;20194;-71
2023/03/02 00:09:18;;;;;;;18.23;12.47;;;1.90;99.90;;;;;;5021061;28;20263;-73
2023/03/02 00:11:44;;;;;;;18.73;12.77;;;1.90;99.90;;;;;;5029437;28;20658;-72
2023/03/02 00:14:10;;;;;;;21.80;13.63;;;1.90;99.90;;;;;;5023773;28;20203;-72
2023/03/02 00:16:35;;;;;;;19.27;14.27;;;1.90;99.90;;;;;;5022475;28;20183;-72
2023/03/02 00:19:01;;;;;;;18.20;13.37;;;1.80;99.90;;;;;;5026586;28;20270;-73
2023/03/02 00:21:27;;;;;;;18.33;14.07;;;1.80;99.90;;;;;;5027970;28;21043;-73
2023/03/02 00:23:52;;;;;;;20.83;14.53;;;1.80;99.90;;;;;;5019268;28;21158;-72
2023/03/02 00:26:18;;;;;;;16.87;13.63;;;1.70;99.90;;;;;;5027428;28;20184;-73
2023/03/02 00:28:44;;;;;;;18.63;14.00;;;1.70;99.90;;;;;;5024139;28;20292;-72
2023/03/02 00:31:09;;;;;;;19.10;14.33;;;1.70;99.90;;;;;;5026492;28;20282;-71
2023/03/02 00:33:35;;;;;;;19.57;13.50;;;1.70;99.90;;;;;;5023496;28;20191;-71
2023/03/02 00:36:01;;;;;;;18.00;13.83;;;1.70;99.90;;;;;;5026553;28;20189;-71
2023/03/02 00:38:27;;;;;;;18.67;13.20;;;1.70;99.90;;;;;;5023726;28;20640;-71
2023/03/02 00:40:54;;;;;;;19.20;14.10;;;1.70;99.90;;;;;;5030442;28;20292;-71
2023/03/02 00:43:21;;;;;;;18.90;13.90;;;1.70;99.90;;;;;;5021543;28;20612;-71
2023/03/02 00:45:47;;;;;;;20.03;13.00;;;1.70;99.90;;;;;;5023543;28;20623;-71
2023/03/02 00:48:13;;;;;;;19.33;14.03;;;1.70;99.90;;;;;;5030638;28;20202;-72
2023/03/02 00:50:40;;;;;;;21.80;14.30;;;1.70;99.90;;;;;;5025533;28;20189;-71
2023/03/02 00:53:08;;;;;;;19.70;14.00;;;1.70;99.90;;;;;;5022641;28;20208;-71
2023/03/02 00:55:35;;;;;;;16.77;12.50;;;1.70;99.90;;;;;;5024354;28;20262;-72
2023/03/02 00:58:01;;;;;;;20.63;14.00;;;1.60;99.90;;;;;;5019544;28;20204;-72
2023/03/02 01:00:27;;;;;;;23.03;13.97;;;1.60;99.90;;;;;;5024685;28;20193;-73
2023/03/02 01:02:53;;;;;;;19.73;13.23;;;1.60;99.90;;;;;;5025095;28;20208;-72
2023/03/02 01:05:19;;;;;;;19.83;13.80;;;1.60;99.90;;;;;;5026117;28;20302;-72
2023/03/02 01:07:45;;;;;;;19.93;13.93;;;1.60;99.90;;;;;;5028876;28;20653;-74
2023/03/02 01:10:11;;;;;;;19.67;14.07;;;1.60;99.90;;;;;;5026639;28;20639;-73
2023/03/02 01:12:36;;;;;;;21.53;14.83;;;1.50;99.90;;;;;;5027510;28;20189;-73
2023/03/02 01:15:03;;;;;;;18.97;13.30;;;1.40;99.90;;;;;;5027218;28;20573;-72
2023/03/02 01:17:28;;;;;;;20.73;13.70;;;1.50;99.90;;;;;;5028925;28;20194;-72
2023/03/02 01:19:55;;;;;;;17.97;14.30;;;1.50;99.90;;;;;;5023497;28;20287;-75
2023/03/02 01:22:21;;;;;;;19.53;13.87;;;1.50;99.90;;;;;;5030371;28;20261;-72
2023/03/02 01:24:47;;;;;;;19.53;14.20;;;1.40;99.90;;;;;;5028138;28;20192;-73
2023/03/02 01:27:13;;;;;;;19.83;14.73;;;1.30;99.90;;;;;;5027642;28;20701;-72
2023/03/02 01:29:39;;;;;;;20.13;14.17;;;1.40;99.90;;;;;;5032193;28;20221;-72
2023/03/02 01:32:05;;;;;;;19.27;12.87;;;1.40;99.90;;;;;;5025018;28;20196;-71
2023/03/02 01:34:31;;;;;;;19.47;13.63;;;1.40;99.90;;;;;;5031132;28;20213;-71
2023/03/02 01:36:57;;;;;;;20.40;14.70;;;1.40;99.90;;;;;;5028328;28;20194;-72
2023/03/02 01:39:22;;;;;;;21.20;15.37;;;1.30;99.90;;;;;;5031576;28;20211;-72
2023/03/02 01:41:50;;;;;;;19.50;14.33;;;1.30;99.90;;;;;;5027403;28;20195;-72
2023/03/02 01:44:55;;;;;;;23.83;14.83;;;1.30;99.90;;;;;;5026195;28;20768;-72
2023/03/02 01:47:39;;;;;;;19.43;14.00;;;1.20;99.90;;;;;;5006612;28;20208;-72
2023/03/02 01:50:18;;;;;;;20.60;15.27;;;1.20;99.90;;;;;;5019846;28;20188;-72
2023/03/02 01:52:43;;;;;;;20.50;14.13;;;1.20;99.90;;;;;;5022070;28;20229;-71
2023/03/02 01:55:12;;;;;;;21.13;14.33;;;1.20;99.90;;;;;;5026849;28;20213;-71
2023/03/02 01:57:43;;;;;;;21.23;14.17;;;1.10;99.90;;;;;;5022827;28;20185;-71
2023/03/02 02:00:18;;;;;;;21.37;13.50;;;1.10;99.90;;;;;;5024126;28;21968;-71
2023/03/02 02:02:44;;;;;;;21.13;14.37;;;1.10;99.90;;;;;;5023788;28;20301;-71
2023/03/02 02:05:14;;;;;;;20.63;14.17;;;1.10;99.90;;;;;;5028003;28;20198;-71
2023/03/02 02:07:40;;;;;;;20.23;14.80;;;1.10;99.90;;;;;;5023834;28;20674;-71
2023/03/02 02:10:07;;;;;;;19.00;14.40;;;1.10;99.90;;;;;;5023360;28;20231;-72
2023/03/02 02:12:33;;;;;;;21.40;14.73;;;1.10;99.90;;;;;;5023447;28;20184;-73
2023/03/02 02:15:00;;;;;;;20.77;14.90;;;1.10;99.90;;;;;;5027157;28;20758;-73
2023/03/02 02:17:27;;;;;;;19.97;13.83;;;1.00;99.90;;;;;;5024104;28;20192;-73
2023/03/02 02:20:18;;;;;;;21.10;14.67;;;1.10;99.90;;;;;;5025858;28;20231;-72
2023/03/02 02:23:02;;;;;;;18.70;13.40;;;1.00;99.90;;;;;;5025088;28;20280;-73
2023/03/02 02:25:30;;;;;;;20.40;15.00;;;1.00;99.90;;;;;;5025352;28;20184;-74
2023/03/02 02:27:56;;;;;;;19.23;13.57;;;1.00;99.90;;;;;;5024808;28;20204;-76
2023/03/02 02:30:23;;;;;;;19.90;13.47;;;1.00;99.90;;;;;;5025050;28;20194;-73
2023/03/02 02:32:51;;;;;;;20.77;14.50;;;1.00;99.90;;;;;;5023623;28;20268;-74
2023/03/02 02:35:29;;;;;;;19.23;14.20;;;1.00;99.90;;;;;;5022137;28;20190;-76
2023/03/02 02:38:04;;;;;;;21.97;14.33;;;1.00;99.90;;;;;;5020604;28;20200;-74
2023/03/02 02:41:00;;;;;;;20.00;14.13;;;0.90;99.90;;;;;;5020751;28;20640;-73
2023/03/02 02:43:27;;;;;;;18.67;12.93;;;0.90;99.90;;;;;;5011976;28;20252;-75
2023/03/02 02:45:56;;;;;;;20.13;14.73;;;0.90;99.90;;;;;;5021581;28;20594;-74
2023/03/02 02:48:25;;;;;;;21.80;14.37;;;0.90;99.90;;;;;;5021186;28;20213;-73
2023/03/02 02:50:59;;;;;;;22.53;14.07;;;0.80;99.90;;;;;;5020144;28;20191;-73
2023/03/02 02:53:47;;;;;;;20.03;13.60;;;0.80;99.90;;;;;;5016205;28;20352;-74
2023/03/02 02:56:14;;;;;;;20.03;14.27;;;0.70;99.90;;;;;;5015614;28;20809;-74
2023/03/02 02:58:47;;;;;;;20.30;13.30;;;0.70;99.90;;;;;;5018093;28;20302;-72
2023/03/02 03:01:15;;;;;;;19.40;13.73;;;0.70;99.90;;;;;;5024294;28;20176;-74
2023/03/02 03:03:50;;;;;;;21.20;13.70;;;0.70;99.90;;;;;;5024421;28;20190;-75
2023/03/02 03:06:19;;;;;;;19.77;13.50;;;0.80;99.90;;;;;;5024894;28;20196;-73
2023/03/02 03:08:45;;;;;;;21.17;13.53;;;0.70;99.90;;;;;;5018505;28;20244;-73
2023/03/02 03:11:14;;;;;;;19.10;13.57;;;0.70;99.90;;;;;;5020850;28;20211;-73
2023/03/02 03:13:42;;;;;;;19.07;13.23;;;0.60;99.90;;;;;;5027491;28;20572;-72
2023/03/02 03:16:12;;;;;;;18.17;13.60;;;0.50;99.90;;;;;;5024849;28;20227;-73
2023/03/02 03:18:41;;;;;;;22.77;14.67;;;0.50;99.90;;;;;;5023009;28;20207;-74
2023/03/02 03:21:07;;;;;;;20.10;14.17;;;0.40;99.90;;;;;;5022229;28;20176;-72
2023/03/02 03:23:36;;;;;;;24.00;14.50;;;0.40;99.90;;;;;;5021175;28;20723;-73
2023/03/02 03:26:05;;;;;;;20.73;13.33;;;0.40;99.90;;;;;;5023796;28;20217;-73
2023/03/02 03:28:31;;;;;;;19.77;13.67;;;0.40;99.90;;;;;;5021410;28;20196;-72
2023/03/02 03:30:57;;;;;;;22.07;14.77;;;0.40;99.90;;;;;;5017344;28;20185;-73
2023/03/02 03:33:23;;;;;;;21.37;15.10;;;0.30;99.90;;;;;;5025844;28;20180;-72
2023/03/02 03:35:48;;;;;;;24.87;15.60;;;0.40;99.90;;;;;;5018727;28;20734;-72
2023/03/02 03:38:15;;;;;;;21.00;14.73;;;0.40;99.90;;;;;;5021938;28;20277;-73
2023/03/02 03:40:40;;;;;;;20.40;13.77;;;0.30;99.90;;;;;;5025671;28;20193;-73
2023/03/02 03:43:06;;;;;;;18.73;15.20;;;0.30;99.90;;;;;;5022594;28;20592;-73
2023/03/02 03:45:31;;;;;;;20.03;14.07;;;0.30;99.90;;;;;;5019768;28;20196;-72
2023/03/02 03:47:57;;;;;;;21.27;14.77;;;0.30;99.90;;;;;;5022698;28;20207;-73
2023/03/02 03:50:23;;;;;;;23.13;15.80;;;0.30;99.90;;;;;;5022378;28;22127;-75
2023/03/02 03:52:49;;;;;;;27.97;16.70;;;0.30;99.90;;;;;;5023464;28;20239;-72
2023/03/02 03:55:15;;;;;;;23.80;15.13;;;0.30;99.90;;;;;;5027502;28;20200;-71
2023/03/02 03:57:40;;;;;;;20.10;14.73;;;0.30;99.90;;;;;;5022950;28;20707;-72
2023/03/02 04:00:09;;;;;;;20.80;14.17;;;0.30;99.90;;;;;;5025488;28;20765;-72
2023/03/02 04:02:36;;;;;;;21.17;14.53;;;0.30;99.90;;;;;;5025294;28;20203;-72
2023/03/02 04:05:05;;;;;;;22.00;14.50;;;0.40;99.90;;;;;;5030181;28;20192;-71
2023/03/02 04:07:35;;;;;;;22.67;15.67;;;0.30;99.90;;;;;;5021086;28;20181;-71
2023/03/02 04:10:04;;;;;;;22.40;14.03;;;0.30;99.90;;;;;;5029365;28;20690;-72
2023/03/02 04:12:30;;;;;;;23.17;14.70;;;0.30;99.90;;;;;;5025227;28;20663;-71
2023/03/02 04:14:56;;;;;;;20.80;14.77;;;0.40;99.90;;;;;;5025628;28;20224;-71
2023/03/02 04:17:22;;;;;;;22.97;16.17;;;0.40;99.90;;;;;;5025902;28;20231;-71
2023/03/02 04:19:47;;;;;;;22.37;16.23;;;0.30;99.90;;;;;;5020616;28;20196;-72
2023/03/02 04:22:15;;;;;;;21.17;15.10;;;0.30;99.90;;;;;;5027214;28;20172;-71
2023/03/02 04:24:40;;;;;;;25.30;16.47;;;0.30;99.90;;;;;;5024588;28;20240;-72
2023/03/02 04:27:06;;;;;;;23.57;16.73;;;0.30;99.90;;;;;;5024774;28;20714;-73
2023/03/02 04:29:32;;;;;;;20.00;14.63;;;0.30;99.90;;;;;;5030463;28;20206;-73
2023/03/02 04:31:57;;;;;;;21.03;14.80;;;0.20;99.90;;;;;;5020856;28;20188;-75
2023/03/02 04:34:24;;;;;;;24.37;15.53;;;0.20;99.90;;;;;;5017169;28;20212;-73
2023/03/02 04:36:50;;;;;;;25.17;16.17;;;0.20;99.90;;;;;;5026748;28;20191;-73
2023/03/02 04:39:17;;;;;;;22.73;15.93;;;0.20;99.90;;;;;;5024485;28;20667;-75
2023/03/02 04:41:43;;;;;;;23.50;15.37;;;0.20;99.90;;;;;;5027214;28;20246;-73
2023/03/02 04:44:09;;;;;;;26.17;17.07;;;0.20;99.90;;;;;;5026401;28;20231;-72
2023/03/02 04:46:35;;;;;;;24.87;17.03;;;0.20;99.90;;;;;;5031982;28;20205;-72
2023/03/02 04:49:00;;;;;;;23.17;15.70;;;0.20;99.90;;;;;;5025839;28;20209;-72
2023/03/02 04:51:29;;;;;;;23.07;16.57;;;0.20;99.90;;;;;;5024890;28;20190;-72
2023/03/02 04:53:58;;;;;;;25.40;16.97;;;0.20;99.90;;;;;;5024619;28;20181;-72
2023/03/02 04:56:25;;;;;;;25.93;16.27;;;0.20;99.90;;;;;;5012476;28;20185;-72
2023/03/02 04:58:50;;;;;;;26.27;17.63;;;0.20;99.90;;;;;;5019447;28;20208;-73
2023/03/02 05:01:18;;;;;;;22.20;17.07;;;0.20;99.90;;;;;;5023823;28;20189;-72
2023/03/02 05:03:43;;;;;;;26.53;16.73;;;0.20;99.90;;;;;;5018691;28;20183;-73
2023/03/02 05:06:09;;;;;;;24.60;17.40;;;0.20;99.90;;;;;;5022232;28;20562;-73
2023/03/02 05:08:35;;;;;;;25.67;17.37;;;0.20;99.90;;;;;;5019749;28;20648;-72
2023/03/02 05:11:01;;;;;;;20.10;15.57;;;0.20;99.90;;;;;;5020399;28;20193;-73
2023/03/02 05:13:27;;;;;;;23.43;16.70;;;0.20;99.90;;;;;;5019731;28;20192;-72
2023/03/02 05:15:56;;;;;;;26.77;17.83;;;0.20;99.90;;;;;;5015330;28;20231;-72
2023/03/02 05:18:22;;;;;;;22.57;16.03;;;0.20;99.90;;;;;;5021736;28;20200;-73
2023/03/02 05:20:49;;;;;;;26.43;16.80;;;0.20;99.90;;;;;;5019765;28;20203;-72
2023/03/02 05:23:26;;;;;;;26.80;16.47;;;0.20;99.90;;;;;;5019502;28;20181;-73
2023/03/02 05:25:55;;;;;;;22.03;17.37;;;0.30;99.90;;;;;;5021325;28;20203;-73
2023/03/02 05:28:22;;;;;;;22.20;16.63;;;0.30;99.90;;;;;;5018908;28;20196;-75
2023/03/02 05:30:48;;;;;;;25.43;16.43;;;0.30;99.90;;;;;;5021807;28;20184;-72
2023/03/02 05:33:15;;;;;;;27.50;18.37;;;0.20;99.90;;;;;;5019469;28;20531;-72
2023/03/02 05:35:41;;;;;;;25.43;16.90;;;0.20;99.90;;;;;;5021828;28;20203;-73
2023/03/02 05:38:07;;;;;;;24.20;16.57;;;0.20;99.90;;;;;;5021433;28;20192;-73
2023/03/02 05:40:33;;;;;;;24.37;17.13;;;0.20;99.90;;;;;;5020084;28;20186;-72
2023/03/02 05:42:59;;;;;;;26.20;18.17;;;0.20;99.90;;;;;;5017012;28;20177;-72
2023/03/02 05:45:28;;;;;;;24.03;17.07;;;0.20;99.90;;;;;;5020188;28;20238;-74
2023/03/02 05:47:54;;;;;;;28.40;18.10;;;0.20;99.90;;;;;;5018477;28;20208;-72
2023/03/02 05:50:19;;;;;;;25.10;18.23;;;0.20;99.90;;;;;;5014571;28;20451;-72
2023/03/02 05:52:45;;;;;;;26.90;17.50;;;0.20;99.90;;;;;;5019154;28;20733;-73
2023/03/02 05:55:13;;;;;;;23.87;17.37;;;0.30;99.90;;;;;;5021846;28;20212;-72
2023/03/02 05:57:39;;;;;;;27.57;18.23;;;0.30;99.90;;;;;;5021101;28;20192;-72
2023/03/02 06:00:06;;;;;;;22.83;16.20;;;0.30;99.90;;;;;;5018350;28;20184;-74
2023/03/02 06:02:31;;;;;;;26.90;18.60;;;0.30;99.90;;;;;;5020246;28;20181;-73
2023/03/02 06:04:57;;;;;;;25.40;17.90;;;0.30;99.90;;;;;;5018265;28;20212;-74
2023/03/02 06:07:22;;;;;;;27.60;18.30;;;0.40;99.90;;;;;;5022992;28;20187;-72
2023/03/02 06:09:49;;;;;;;28.63;19.23;;;0.40;99.90;;;;;;5020329;28;20215;-73
2023/03/02 06:12:16;;;;;;;24.03;17.30;;;0.50;99.90;;;;;;5019586;28;20185;-72
2023/03/02 06:14:43;;;;;;;26.67;18.60;;;0.50;99.90;;;;;;5018293;28;20210;-71
2023/03/02 06:17:08;;;;;;;26.57;18.60;;;0.50;99.90;;;;;;5018094;28;20184;-74
2023/03/02 06:19:34;;;;;;;28.93;19.33;;;0.60;99.90;;;;;;5017225;28;20208;-71
2023/03/02 06:22:00;;;;;;;26.57;19.50;;;0.70;99.90;;;;;;5011058;28;20829;-74
2023/03/02 06:24:25;;;;;;;26.53;18.90;;;0.70;99.90;;;;;;5016797;28;20217;-73
2023/03/02 06:26:54;;;;;;;30.73;18.60;;;0.70;99.90;;;;;;5014211;28;20588;-72
2023/03/02 06:29:21;;;;;;;24.67;17.83;;;0.80;99.90;;;;;;5014757;28;20208;-76
2023/03/02 06:31:46;;;;;;;25.33;17.20;;;0.90;99.90;;;;;;5018114;28;20271;-72
2023/03/02 06:34:12;;;;;;;26.37;18.07;;;1.00;99.90;;;;;;5019981;28;20200;-74
2023/03/02 06:36:38;;;;;;;29.83;18.83;;;1.00;99.90;;;;;;5017314;28;20868;-74
2023/03/02 06:39:05;;;;;;;24.60;16.57;;;1.00;99.90;;;;;;5015886;28;20204;-75
2023/03/02 06:41:32;;;;;;;28.90;18.33;;;1.10;99.90;;;;;;5017226;28;20618;-73
2023/03/02 06:43:58;;;;;;;25.73;18.13;;;1.20;99.90;;;;;;5018320;28;20213;-73
2023/03/02 06:46:24;;;;;;;28.97;19.23;;;1.20;99.90;;;;;;5018400;28;20299;-75
2023/03/02 06:48:50;;;;;;;29.30;19.77;;;1.30;99.90;;;;;;5018327;28;20605;-75
2023/03/02 06:51:16;;;;;;;27.03;18.27;;;1.40;99.90;;;;;;5016480;28;20187;-75
2023/03/02 06:53:42;;;;;;;27.37;17.97;;;1.50;99.90;;;;;;5015559;28;20194;-76
2023/03/02 06:56:08;;;;;;;27.13;17.17;;;1.60;99.90;;;;;;5018206;28;20208;-74
2023/03/02 06:58:34;;;;;;;27.33;17.37;;;1.70;99.90;;;;;;5015844;28;20243;-74
2023/03/02 07:01:00;;;;;;;27.53;18.80;;;1.80;99.90;;;;;;5019117;28;20660;-73
2023/03/02 07:03:26;;;;;;;27.13;18.03;;;1.90;99.90;;;;;;5018173;28;20240;-74
2023/03/02 07:05:51;;;;;;;23.27;17.77;;;2.00;99.90;;;;;;5019396;28;20185;-73
2023/03/02 07:08:17;;;;;;;28.13;17.57;;;2.10;99.90;;;;;;5015668;28;20253;-73
2023/03/02 07:10:42;;;;;;;27.03;19.63;;;2.10;99.90;;;;;;5017476;28;20664;-74
2023/03/02 07:13:08;;;;;;;26.77;18.33;;;2.10;99.90;;;;;;5017682;28;20187;-73
2023/03/02 07:15:33;;;;;;;24.13;16.77;;;2.20;99.90;;;;;;5017364;28;20770;-73
2023/03/02 07:17:59;;;;;;;28.43;18.93;;;2.20;99.90;;;;;;5020927;28;20283;-74
2023/03/02 07:20:31;;;;;;;26.33;18.43;;;2.30;99.90;;;;;;5046781;28;20648;-74
2023/03/02 07:22:57;;;;;;;26.03;17.67;;;2.30;99.90;;;;;;5045753;28;20184;-74
2023/03/02 07:25:22;;;;;;;26.53;17.60;;;2.40;99.90;;;;;;5047256;28;20196;-75
2023/03/02 07:27:48;;;;;;;28.80;18.73;;;2.40;99.90;;;;;;5052288;28;20175;-74
2023/03/02 07:30:14;;;;;;;25.60;18.37;;;2.50;99.90;;;;;;5052027;28;20605;-75
2023/03/02 07:32:40;;;;;;;26.57;17.87;;;2.60;99.90;;;;;;5044518;28;20663;-76
2023/03/02 07:35:06;;;;;;;28.58;18.30;;;2.60;99.90;;;;;;5045995;28;20183;-77
2023/03/02 07:37:32;;;;;;;28.47;18.87;;;2.70;99.90;;;;;;5048154;28;20229;-76
2023/03/02 07:39:57;;;;;;;25.90;17.70;;;2.80;99.90;;;;;;5052804;28;20211;-77
2023/03/02 07:42:23;;;;;;;27.37;18.33;;;2.80;99.90;;;;;;5052998;28;20208;-76
2023/03/02 07:44:51;;;;;;;26.40;17.13;;;2.90;99.90;;;;;;5048691;28;20271;-76
2023/03/02 07:47:17;;;;;;;25.03;18.00;;;3.00;99.90;;;;;;5047148;28;20273;-76
2023/03/02 07:49:43;;;;;;;23.83;17.10;;;3.00;99.90;;;;;;5049623;28;20683;-74
2023/03/02 07:52:08;;;;;;;26.57;19.20;;;3.10;99.90;;;;;;5045342;28;20212;-76
2023/03/02 07:54:34;;;;;;;26.25;17.45;;;3.20;99.90;;;;;;5051506;28;20247;-75
2023/03/02 07:56:59;;;;;;;27.45;18.73;;;3.30;99.90;;;;;;5045913;28;20177;-75
2023/03/02 07:59:27;;;;;;;22.15;15.13;;;3.30;99.90;;;;;;5054445;28;20212;-75
2023/03/02 08:01:52;;;;;;;24.40;17.15;;;3.40;99.90;;;;;;5044770;28;20176;-75
2023/03/02 08:04:18;;;;;;;26.00;17.27;;;3.50;99.90;;;;;;5049369;28;20176;-74
2023/03/02 08:06:43;;;;;;;27.35;16.90;;;3.60;99.90;;;;;;5053507;28;20212;-75
2023/03/02 08:09:09;;;;;;;28.75;18.55;;;3.70;99.90;;;;;;5041505;28;20206;-75
2023/03/02 08:11:35;;;;;;;24.10;17.23;;;3.70;99.90;;;;;;5047180;28;20176;-75
2023/03/02 08:14:02;;;;;;;24.87;17.87;;;3.70;99.90;;;;;;5049429;28;20425;-75
2023/03/02 08:16:28;;;;;;;27.52;17.63;;;3.80;99.90;;;;;;5048212;28;20180;-74
2023/03/02 08:18:54;;;;;;;22.40;16.85;;;3.90;99.90;;;;;;5042040;28;20219;-75
2023/03/02 08:21:23;;;;;;;29.15;16.42;;;4.00;99.90;;;;;;5045136;28;20218;-75
2023/03/02 08:23:49;;;;;;;26.83;17.42;;;4.10;99.90;;;;;;5046142;28;20169;-75
2023/03/02 08:26:16;;;;;;;25.08;18.08;;;4.20;99.90;;;;;;5046646;28;20662;-76
2023/03/02 08:28:42;;;;;;;30.42;18.63;;;4.20;99.90;;;;;;5045344;28;20204;-75
2023/03/02 08:31:08;;;;;;;22.92;16.80;;;4.30;99.90;;;;;;5044308;28;20679;-76
2023/03/02 08:33:35;;;;;;;24.60;15.82;;;4.40;99.90;;;;;;5039095;28;20189;-75
2023/03/02 08:36:04;;;;;;;26.58;17.60;;;4.50;99.90;;;;;;5030007;28;20181;-75
2023/03/02 08:38:30;;;;;;;25.05;16.38;;;4.60;99.90;;;;;;5034560;28;20602;-74
2023/03/02 08:40:56;;;;;;;29.17;17.00;;;4.70;99.90;;;;;;5038533;28;20189;-76
2023/03/02 08:43:23;;;;;;;22.33;16.95;;;4.90;99.90;;;;;;5038764;28;20186;-76
2023/03/02 08:45:54;;;;;;;26.42;19.13;;;4.90;99.90;;;;;;5038083;28;20545;-76
2023/03/02 08:48:23;;;;;;;22.25;15.80;;;5.10;99.90;;;;;;5038795;28;20193;-75
2023/03/02 08:51:05;;;;;;;24.20;17.33;;;5.20;99.90;;;;;;5031386;28;20173;-75
2023/03/02 08:53:34;;;;;;;22.35;15.63;;;5.40;99.90;;;;;;5036489;28;20746;-76
2023/03/02 08:56:00;;;;;;;24.00;15.80;;;5.60;99.90;;;;;;5036404;28;20604;-75
2023/03/02 08:58:26;;;;;;;22.50;16.65;;;5.80;99.90;;;;;;5039797;28;20245;-74
2023/03/02 09:00:51;;;;;;;22.50;15.63;;;6.00;99.90;;;;;;5030978;28;20179;-75
2023/03/02 09:03:17;;;;;;;22.63;15.52;;;6.20;99.90;;;;;;5037824;28;20199;-75
2023/03/02 09:05:43;;;;;;;26.23;16.67;;;6.50;99.90;;;;;;5032656;28;20183;-74
2023/03/02 09:08:09;;;;;;;23.42;15.60;;;6.80;99.90;;;;;;5032526;28;20192;-74
2023/03/02 09:10:35;;;;;;;22.42;16.40;;;6.80;99.90;;;;;;5031728;28;20172;-74
2023/03/02 09:13:01;;;;;;;23.90;16.58;;;6.80;99.90;;;;;;5031549;28;20181;-75
2023/03/02 09:15:26;;;;;;;21.65;16.40;;;6.80;99.90;;;;;;5029063;28;20594;-75
2023/03/02 09:17:52;;;;;;;26.73;16.80;;;7.40;99.90;;;;;;5030743;28;20244;-75
2023/03/02 09:20:18;;;;;;;20.77;15.52;;;8.20;99.90;;;;;;5039377;28;20219;-75
2023/03/02 09:22:47;;;;;;;23.80;14.93;;;8.50;99.90;;;;;;5030997;28;20181;-76
2023/03/02 09:25:13;;;;;;;24.52;15.65;;;8.50;99.90;;;;;;5035854;28;20495;-76
2023/03/02 09:27:39;;;;;;;23.13;16.02;;;8.50;99.90;;;;;;5031330;28;20189;-76
2023/03/02 09:30:05;;;;;;;23.10;16.42;;;8.40;99.90;;;;;;5042153;28;20187;-75
2023/03/02 09:32:31;;;;;;;21.63;15.07;;;8.30;99.90;;;;;;5037273;28;20561;-75
2023/03/02 09:34:56;;;;;;;19.52;15.43;;;8.60;99.90;;;;;;5031646;28;20188;-75
2023/03/02 09:37:22;;;;;;;21.98;16.55;;;9.50;99.90;;;;;;5026268;28;20185;-75
2023/03/02 09:39:47;;;;;;;21.25;16.90;;;11.20;98.20;;;;;;5041766;28;20249;-76
2023/03/02 09:42:19;;;;;;;22.70;16.05;;;13.40;92.60;;;;;;5037272;28;20179;-75
2023/03/02 09:45:03;;;;;;;21.83;15.85;;;15.60;83.80;;;;;;5032841;28;20203;-75
2023/03/02 09:47:44;;;;;;;19.02;14.82;;;17.40;71.00;;;;;;5034110;28;20172;-75
2023/03/02 09:50:20;;;;;;;20.75;15.07;;;18.90;63.30;;;;;;5030842;28;20184;-75
2023/03/02 09:53:29;;;;;;;17.20;13.07;;;19.70;58.30;;;;;;5031252;28;20179;-75
2023/03/02 09:55:59;;;;;;;20.00;15.02;;;20.70;56.00;;;;;;5038258;28;20196;-75
2023/03/02 09:58:30;;;;;;;18.75;14.27;;;21.80;53.30;;;;;;5028189;28;20215;-76
2023/03/02 10:00:59;;;;;;;21.25;14.57;;;22.40;51.30;;;;;;5033072;28;20182;-76
2023/03/02 10:03:38;;;;;;;18.25;14.82;;;22.60;50.70;;;;;;5031592;28;20180;-76
2023/03/02 10:06:04;;;;;;;15.90;13.80;;;23.30;49.00;;;;;;5032591;28;20300;-76
2023/03/02 10:08:34;;;;;;;18.85;14.30;;;24.00;48.10;;;;;;5033537;28;20212;-77
2023/03/02 10:11:26;;;;;;;16.73;14.88;;;24.40;47.00;;;;;;5042534;28;20177;-77
2023/03/02 10:14:00;;;;;;;17.33;14.45;;;24.10;46.20;;;;;;5034917;28;20191;-76
2023/03/02 10:16:47;;;;;;;18.90;14.85;;;25.00;46.10;;;;;;5027148;28;20204;-76
2023/03/02 10:19:31;;;;;;;16.38;14.07;;;25.40;44.50;;;;;;5027282;28;20267;-76
2023/03/02 10:22:20;;;;;;;17.83;14.40;;;25.40;44.50;;;;;;5026837;28;20197;-76
2023/03/02 10:25:07;;;;;;;16.75;14.73;;;25.20;44.30;;;;;;5026494;28;20348;-77
2023/03/02 10:27:38;;;;;;;18.73;14.68;;;25.10;44.80;;;;;;5026841;28;20187;-75
2023/03/02 10:30:09;;;;;;;15.57;13.77;;;25.10;45.10;;;;;;5026003;28;20192;-76
2023/03/02 10:32:41;;;;;;;14.35;12.55;;;24.90;44.80;;;;;;5026372;28;20196;-76
2023/03/02 10:35:19;;;;;;;14.55;13.02;;;25.60;44.30;;;;;;5037438;28;20195;-76
2023/03/02 10:37:45;;;;;;;14.93;13.07;;;26.90;43.10;;;;;;5034422;28;20233;-75
2023/03/02 10:40:39;;;;;;;16.88;13.98;;;27.90;42.00;;;;;;5032074;28;20265;-76
2023/03/02 10:43:12;;;;;;;20.00;14.45;;;28.50;40.60;;;;;;5032106;28;20188;-76
2023/03/02 10:45:38;;;;;;;17.13;15.32;;;28.90;39.90;;;;;;5031566;28;20212;-76
2023/03/02 10:48:07;;;;;;;17.52;15.43;;;29.00;38.80;;;;;;5025597;28;20622;-75
2023/03/02 10:50:34;;;;;;;16.83;14.85;;;28.30;40.50;;;;;;5031863;28;20191;-76
2023/03/02 10:53:00;;;;;;;19.02;15.10;;;28.30;40.00;;;;;;5032543;28;20191;-77
2023/03/02 10:55:25;;;;;;;17.08;15.25;;;28.10;40.10;;;;;;5033003;28;20180;-75
2023/03/02 10:58:18;;;;;;;18.80;14.65;;;28.60;40.00;;;;;;5029899;28;20525;-75
2023/03/02 11:01:04;;;;;;;16.88;14.93;;;29.40;38.80;;;;;;5029475;28;20206;-75
2023/03/02 11:03:32;;;;;;;16.02;14.43;;;29.30;38.60;;;;;;5033107;28;20191;-75
2023/03/02 11:06:19;;;;;;;16.00;14.23;;;29.30;38.70;;;;;;5043061;28;20177;-75
2023/03/02 11:08:44;;;;;;;16.95;14.82;;;28.60;39.30;;;;;;5030090;28;20683;-75
2023/03/02 11:11:22;;;;;;;16.60;14.30;;;28.50;39.80;;;;;;5027536;28;20180;-74
2023/03/02 11:13:48;;;;;;;15.75;13.90;;;28.90;38.90;;;;;;5030483;28;20241;-75
2023/03/02 11:16:16;;;;;;;15.35;13.13;;;29.50;38.70;;;;;;5033499;28;20713;-75
2023/03/02 11:18:53;;;;;;;17.02;14.15;;;29.90;37.90;;;;;;5025239;28;20261;-75
2023/03/02 11:21:37;;;;;;;16.25;13.80;;;29.70;38.10;;;;;;5027185;28;20514;-75
2023/03/02 11:24:43;;;;;;;15.30;12.50;;;30.00;38.10;;;;;;5034831;28;20255;-75
2023/03/02 11:27:21;;;;;;;15.30;11.30;;;30.70;37.60;;;;;;5032636;28;20246;-76
2023/03/02 11:30:12;;;;;;;17.77;12.88;;;31.20;37.00;;;;;;5029789;28;20199;-76
2023/03/02 11:33:21;;;;;;;15.70;13.18;;;32.00;35.80;;;;;;5026865;28;20184;-76
2023/03/02 11:35:54;;;;;;;14.68;12.93;;;32.30;35.70;;;;;;5020883;28;20191;-76
2023/03/02 11:38:28;;;;;;;16.65;12.65;;;32.30;35.80;;;;;;5026022;28;20716;-75
2023/03/02 11:40:58;;;;;;;14.43;12.93;;;32.60;35.10;;;;;;5027718;28;20255;-75
2023/03/02 11:43:24;;;;;;;15.35;13.32;;;32.80;35.40;;;;;;5034938;28;20653;-76
2023/03/02 11:46:02;;;;;;;16.17;14.48;;;33.20;34.80;;;;;;5030076;28;20183;-77
2023/03/02 11:48:36;;;;;;;15.45;12.52;;;33.10;35.00;;;;;;5038004;28;20217;-76
2023/03/02 11:51:27;;;;;;;19.95;13.55;;;33.20;35.20;;;;;;5031920;28;20228;-76
2023/03/02 11:53:58;;;;;;;15.10;13.60;;;33.60;34.00;;;;;;5021496;28;20183;-76
2023/03/02 11:56:25;;;;;;;16.23;14.23;;;33.30;33.80;;;;;;5028976;28;20188;-76
2023/03/02 11:59:00;;;;;;;13.95;12.45;;;33.20;34.20;;;;;;5028078;28;20203;-76
2023/03/02 12:01:27;;;;;;;15.05;13.55;;;33.10;34.60;;;;;;5025173;28;20179;-76
2023/03/02 12:03:53;;;;;;;15.52;13.90;;;33.20;34.40;;;;;;5031157;28;20179;-76
2023/03/02 12:06:21;;;;;;;15.30;13.15;;;33.60;33.60;;;;;;5031333;28;20207;-76
2023/03/02 12:09:22;;;;;;;14.13;12.63;;;33.90;33.70;;;;;;5033956;28;20679;-77
2023/03/02 12:11:55;;;;;;;14.48;12.98;;;33.80;34.00;;;;;;5035742;28;20629;-76
2023/03/02 12:14:24;;;;;;;16.52;14.82;;;34.00;33.50;;;;;;5037239;28;20184;-76
2023/03/02 12:16:50;;;;;;;16.65;13.73;;;32.80;34.20;;;;;;5036982;28;20658;-77
2023/03/02 12:19:15;;;;;;;15.30;13.60;;;32.30;34.50;;;;;;5026828;28;20220;-76
2023/03/02 12:22:08;;;;;;;16.20;12.95;;;32.40;35.10;;;;;;5030158;28;20198;-77
2023/03/02 12:24:36;;;;;;;15.43;13.93;;;33.20;34.30;;;;;;5025515;28;20602;-76
2023/03/02 12:27:06;;;;;;;19.40;14.18;;;33.50;33.80;;;;;;5032285;28;20179;-74
2023/03/02 12:29:41;;;;;;;15.38;13.13;;;33.90;33.80;;;;;;5029778;28;20203;-74
2023/03/02 12:32:28;;;;;;;16.13;13.68;;;34.40;33.20;;;;;;5029454;28;20278;-74
2023/03/02 12:35:07;;;;;;;16.05;12.82;;;34.00;33.10;;;;;;5024443;28;20234;-75
2023/03/02 12:37:51;;;;;;;15.82;13.55;;;34.30;33.30;;;;;;5027667;28;20263;-76
2023/03/02 12:40:50;;;;;;;16.33;14.32;;;34.40;33.00;;;;;;5025346;28;20223;-75
2023/03/02 12:43:19;;;;;;;15.98;13.07;;;34.30;33.30;;;;;;5024793;28;20180;-76
2023/03/02 12:46:15;;;;;;;17.00;13.68;;;33.90;32.90;;;;;;5025398;28;20559;-76
2023/03/02 12:48:48;;;;;;;14.40;12.07;;;33.30;33.20;;;;;;5029546;28;20257;-76